sensor_id;sensor_type;location;lat;lon;timestamp;P1;durP1;ratioP1;P2;durP2;ratioP2
20056;SDS011;10189;49.546;7.906;2022-07-10T00:00:41;4.82;;;4.00;;
20056;SDS011;10189;49.546;7.906;2022-07-10T00:03:07;4.70;;;4.00;;
20056;SDS011;10189;49.546;7.906;2022-07-10T00:05:33;4.00;;;3.70;;
20056;SDS011;10189;49.546;7.906;2022-07-10T00:08:00;5.20;;;4.30;;
20056;SDS011;10189;49.546;7.906;2022-07-10T00:10:27;5.15;;;3.45;;
20056;SDS011;10189;49.546;7.906;2022-07-10T00:12:54;3.88;;;3.42;;
20056;SDS011;10189;49.546;7.906;2022-07-10T00:15:20;4.75;;;3.38;;
20056;SDS011;10189;49.546;7.906;2022-07-10T00:17:47;6.22;;;3.20;;
20056;SDS011;10189;49.546;7.906;2022-07-10T00:20:13;5.30;;;3.40;;
20056;SDS011;10189;49.546;7.906;2022-07-10T00:22:39;5.55;;;3.30;;
20056;SDS011;10189;49.546;7.906;2022-07-10T00:25:06;5.00;;;3.38;;
20056;SDS011;10189;49.546;7.906;2022-07-10T00:27:36;5.93;;;3.17;;
20056;SDS011;10189;49.546;7.906;2022-07-10T00:30:03;4.38;;;3.20;;
20056;SDS011;10189;49.546;7.906;2022-07-10T00:32:30;7.20;;;3.38;;
20056;SDS011;10189;49.546;7.906;2022-07-10T00:34:58;4.70;;;3.35;;
20056;SDS011;10189;49.546;7.906;2022-07-10T00:37:24;4.40;;;2.97;;
20056;SDS011;10189;49.546;7.906;2022-07-10T00:39:50;5.40;;;2.97;;
20056;SDS011;10189;49.546;7.906;2022-07-10T00:42:16;5.40;;;3.15;;
20056;SDS011;10189;49.546;7.906;2022-07-10T00:44:42;4.45;;;3.00;;
20056;SDS011;10189;49.546;7.906;2022-07-10T00:47:09;8.77;;;3.53;;
20056;SDS011;10189;49.546;7.906;2022-07-10T00:49:36;6.35;;;2.90;;
20056;SDS011;10189;49.546;7.906;2022-07-10T00:52:06;7.45;;;3.30;;
20056;SDS011;10189;49.546;7.906;2022-07-10T00:54:37;7.65;;;3.13;;
20056;SDS011;10189;49.546;7.906;2022-07-10T00:57:10;5.65;;;3.10;;
20056;SDS011;10189;49.546;7.906;2022-07-10T00:59:39;6.35;;;3.42;;
20056;SDS011;10189;49.546;7.906;2022-07-10T01:02:06;6.80;;;3.72;;
20056;SDS011;10189;49.546;7.906;2022-07-10T01:04:32;5.40;;;3.15;;
20056;SDS011;10189;49.546;7.906;2022-07-10T01:06:59;6.55;;;3.47;;
20056;SDS011;10189;49.546;7.906;2022-07-10T01:09:25;5.47;;;3.35;;
20056;SDS011;10189;49.546;7.906;2022-07-10T01:11:54;5.80;;;3.05;;
20056;SDS011;10189;49.546;7.906;2022-07-10T01:14:24;4.13;;;3.03;;
20056;SDS011;10189;49.546;7.906;2022-07-10T01:16:51;5.13;;;3.20;;
20056;SDS011;10189;49.546;7.906;2022-07-10T01:19:18;3.20;;;2.88;;
20056;SDS011;10189;49.546;7.906;2022-07-10T01:21:45;5.68;;;3.10;;
20056;SDS011;10189;49.546;7.906;2022-07-10T01:24:11;5.28;;;3.15;;
20056;SDS011;10189;49.546;7.906;2022-07-10T01:26:37;5.28;;;3.33;;
20056;SDS011;10189;49.546;7.906;2022-07-10T01:29:08;5.63;;;3.45;;
20056;SDS011;10189;49.546;7.906;2022-07-10T01:31:36;4.13;;;2.88;;
20056;SDS011;10189;49.546;7.906;2022-07-10T01:34:04;5.32;;;3.47;;
20056;SDS011;10189;49.546;7.906;2022-07-10T01:36:36;4.70;;;3.05;;
20056;SDS011;10189;49.546;7.906;2022-07-10T01:39:03;4.75;;;3.25;;
20056;SDS011;10189;49.546;7.906;2022-07-10T01:41:30;4.00;;;2.67;;
20056;SDS011;10189;49.546;7.906;2022-07-10T01:43:56;4.30;;;3.00;;
20056;SDS011;10189;49.546;7.906;2022-07-10T01:46:22;4.63;;;2.90;;
20056;SDS011;10189;49.546;7.906;2022-07-10T01:48:49;5.90;;;2.92;;
20056;SDS011;10189;49.546;7.906;2022-07-10T01:51:15;4.50;;;2.85;;
20056;SDS011;10189;49.546;7.906;2022-07-10T01:53:41;5.00;;;2.60;;
20056;SDS011;10189;49.546;7.906;2022-07-10T01:56:07;5.05;;;3.10;;
20056;SDS011;10189;49.546;7.906;2022-07-10T01:58:36;5.82;;;3.40;;
20056;SDS011;10189;49.546;7.906;2022-07-10T02:01:03;4.60;;;2.63;;
20056;SDS011;10189;49.546;7.906;2022-07-10T02:03:30;9.40;;;3.47;;
20056;SDS011;10189;49.546;7.906;2022-07-10T02:06:15;5.03;;;2.78;;
20056;SDS011;10189;49.546;7.906;2022-07-10T02:08:42;4.22;;;3.15;;
20056;SDS011;10189;49.546;7.906;2022-07-10T02:11:08;5.72;;;3.13;;
20056;SDS011;10189;49.546;7.906;2022-07-10T02:13:33;5.03;;;2.97;;
20056;SDS011;10189;49.546;7.906;2022-07-10T02:15:59;4.53;;;2.70;;
20056;SDS011;10189;49.546;7.906;2022-07-10T02:18:25;3.58;;;2.60;;
20056;SDS011;10189;49.546;7.906;2022-07-10T02:20:51;4.93;;;3.13;;
20056;SDS011;10189;49.546;7.906;2022-07-10T02:23:18;4.10;;;2.70;;
20056;SDS011;10189;49.546;7.906;2022-07-10T02:25:43;6.22;;;3.17;;
20056;SDS011;10189;49.546;7.906;2022-07-10T02:28:09;6.22;;;3.20;;
20056;SDS011;10189;49.546;7.906;2022-07-10T02:30:36;5.57;;;3.20;;
20056;SDS011;10189;49.546;7.906;2022-07-10T02:33:02;6.85;;;3.30;;
20056;SDS011;10189;49.546;7.906;2022-07-10T02:35:28;6.57;;;3.50;;
20056;SDS011;10189;49.546;7.906;2022-07-10T02:37:54;7.85;;;3.80;;
20056;SDS011;10189;49.546;7.906;2022-07-10T02:40:21;7.00;;;3.63;;
20056;SDS011;10189;49.546;7.906;2022-07-10T02:42:47;6.28;;;3.42;;
20056;SDS011;10189;49.546;7.906;2022-07-10T02:45:12;4.82;;;3.50;;
20056;SDS011;10189;49.546;7.906;2022-07-10T02:47:39;6.70;;;3.72;;
20056;SDS011;10189;49.546;7.906;2022-07-10T02:50:05;5.32;;;3.38;;
20056;SDS011;10189;49.546;7.906;2022-07-10T02:52:31;9.57;;;3.55;;
20056;SDS011;10189;49.546;7.906;2022-07-10T02:54:57;5.57;;;3.60;;
20056;SDS011;10189;49.546;7.906;2022-07-10T02:57:24;5.35;;;3.35;;
20056;SDS011;10189;49.546;7.906;2022-07-10T02:59:50;5.72;;;3.13;;
20056;SDS011;10189;49.546;7.906;2022-07-10T03:02:16;4.95;;;3.08;;
20056;SDS011;10189;49.546;7.906;2022-07-10T03:04:42;4.82;;;3.22;;
20056;SDS011;10189;49.546;7.906;2022-07-10T03:07:08;6.70;;;3.17;;
20056;SDS011;10189;49.546;7.906;2022-07-10T03:09:34;6.57;;;3.08;;
20056;SDS011;10189;49.546;7.906;2022-07-10T03:12:00;4.68;;;3.50;;
20056;SDS011;10189;49.546;7.906;2022-07-10T03:14:26;5.80;;;3.08;;
20056;SDS011;10189;49.546;7.906;2022-07-10T03:16:52;5.32;;;3.20;;
20056;SDS011;10189;49.546;7.906;2022-07-10T03:19:17;8.45;;;3.17;;
20056;SDS011;10189;49.546;7.906;2022-07-10T03:21:43;5.97;;;3.13;;
20056;SDS011;10189;49.546;7.906;2022-07-10T03:24:11;4.50;;;3.22;;
20056;SDS011;10189;49.546;7.906;2022-07-10T03:26:37;4.22;;;3.40;;
20056;SDS011;10189;49.546;7.906;2022-07-10T03:29:03;6.47;;;3.25;;
20056;SDS011;10189;49.546;7.906;2022-07-10T03:31:29;6.38;;;3.30;;
20056;SDS011;10189;49.546;7.906;2022-07-10T03:33:55;5.97;;;3.28;;
20056;SDS011;10189;49.546;7.906;2022-07-10T03:36:21;5.95;;;3.60;;
20056;SDS011;10189;49.546;7.906;2022-07-10T03:38:47;4.45;;;3.20;;
20056;SDS011;10189;49.546;7.906;2022-07-10T03:41:13;5.20;;;3.15;;
20056;SDS011;10189;49.546;7.906;2022-07-10T03:43:39;4.65;;;3.05;;
20056;SDS011;10189;49.546;7.906;2022-07-10T03:46:05;5.15;;;2.92;;
20056;SDS011;10189;49.546;7.906;2022-07-10T03:48:32;4.07;;;3.08;;
20056;SDS011;10189;49.546;7.906;2022-07-10T03:50:58;3.83;;;2.88;;
20056;SDS011;10189;49.546;7.906;2022-07-10T03:53:25;11.85;;;3.65;;
20056;SDS011;10189;49.546;7.906;2022-07-10T03:55:52;5.47;;;3.10;;
20056;SDS011;10189;49.546;7.906;2022-07-10T03:58:19;6.03;;;3.28;;
20056;SDS011;10189;49.546;7.906;2022-07-10T04:00:45;6.88;;;3.60;;
20056;SDS011;10189;49.546;7.906;2022-07-10T04:03:12;4.43;;;3.15;;
20056;SDS011;10189;49.546;7.906;2022-07-10T04:05:38;6.95;;;3.50;;
20056;SDS011;10189;49.546;7.906;2022-07-10T04:08:05;6.28;;;4.00;;
20056;SDS011;10189;49.546;7.906;2022-07-10T04:10:31;6.60;;;3.50;;
20056;SDS011;10189;49.546;7.906;2022-07-10T04:12:57;8.20;;;3.70;;
20056;SDS011;10189;49.546;7.906;2022-07-10T04:15:24;5.43;;;3.20;;
20056;SDS011;10189;49.546;7.906;2022-07-10T04:17:51;6.05;;;3.22;;
20056;SDS011;10189;49.546;7.906;2022-07-10T04:20:17;4.97;;;3.20;;
20056;SDS011;10189;49.546;7.906;2022-07-10T04:22:44;4.43;;;3.03;;
20056;SDS011;10189;49.546;7.906;2022-07-10T04:25:10;4.43;;;3.42;;
20056;SDS011;10189;49.546;7.906;2022-07-10T04:27:37;8.02;;;3.17;;
20056;SDS011;10189;49.546;7.906;2022-07-10T04:30:04;6.00;;;3.35;;
20056;SDS011;10189;49.546;7.906;2022-07-10T04:32:31;4.78;;;3.38;;
20056;SDS011;10189;49.546;7.906;2022-07-10T04:34:57;5.75;;;3.33;;
20056;SDS011;10189;49.546;7.906;2022-07-10T04:37:24;5.30;;;3.33;;
20056;SDS011;10189;49.546;7.906;2022-07-10T04:39:50;6.45;;;3.10;;
20056;SDS011;10189;49.546;7.906;2022-07-10T04:42:16;5.70;;;2.97;;
20056;SDS011;10189;49.546;7.906;2022-07-10T04:44:42;5.72;;;3.15;;
20056;SDS011;10189;49.546;7.906;2022-07-10T04:47:07;6.05;;;3.63;;
20056;SDS011;10189;49.546;7.906;2022-07-10T04:49:34;5.47;;;3.17;;
20056;SDS011;10189;49.546;7.906;2022-07-10T04:52:00;4.50;;;2.80;;
20056;SDS011;10189;49.546;7.906;2022-07-10T04:54:27;5.95;;;3.30;;
20056;SDS011;10189;49.546;7.906;2022-07-10T04:56:52;3.90;;;2.80;;
20056;SDS011;10189;49.546;7.906;2022-07-10T04:59:18;9.27;;;3.00;;
20056;SDS011;10189;49.546;7.906;2022-07-10T05:01:44;4.07;;;2.53;;
20056;SDS011;10189;49.546;7.906;2022-07-10T05:04:10;4.82;;;2.70;;
20056;SDS011;10189;49.546;7.906;2022-07-10T05:06:36;5.28;;;2.67;;
20056;SDS011;10189;49.546;7.906;2022-07-10T05:09:03;3.60;;;2.33;;
20056;SDS011;10189;49.546;7.906;2022-07-10T05:11:29;4.15;;;2.50;;
20056;SDS011;10189;49.546;7.906;2022-07-10T05:13:56;4.45;;;2.30;;
20056;SDS011;10189;49.546;7.906;2022-07-10T05:16:23;5.20;;;2.30;;
20056;SDS011;10189;49.546;7.906;2022-07-10T05:18:48;4.85;;;2.30;;
20056;SDS011;10189;49.546;7.906;2022-07-10T05:21:14;3.83;;;1.70;;
20056;SDS011;10189;49.546;7.906;2022-07-10T05:23:41;5.75;;;1.70;;
20056;SDS011;10189;49.546;7.906;2022-07-10T05:26:07;4.97;;;2.20;;
20056;SDS011;10189;49.546;7.906;2022-07-10T05:28:33;6.03;;;2.13;;
20056;SDS011;10189;49.546;7.906;2022-07-10T05:30:59;4.03;;;2.03;;
20056;SDS011;10189;49.546;7.906;2022-07-10T05:33:24;3.40;;;1.90;;
20056;SDS011;10189;49.546;7.906;2022-07-10T05:35:54;5.38;;;2.20;;
20056;SDS011;10189;49.546;7.906;2022-07-10T05:38:20;5.78;;;2.03;;
20056;SDS011;10189;49.546;7.906;2022-07-10T05:40:46;5.63;;;2.10;;
20056;SDS011;10189;49.546;7.906;2022-07-10T05:43:12;4.32;;;2.10;;
20056;SDS011;10189;49.546;7.906;2022-07-10T05:45:38;5.13;;;2.08;;
20056;SDS011;10189;49.546;7.906;2022-07-10T05:48:04;4.15;;;1.73;;
20056;SDS011;10189;49.546;7.906;2022-07-10T05:50:30;4.40;;;1.80;;
20056;SDS011;10189;49.546;7.906;2022-07-10T05:52:57;4.80;;;1.60;;
20056;SDS011;10189;49.546;7.906;2022-07-10T05:55:23;5.13;;;1.50;;
20056;SDS011;10189;49.546;7.906;2022-07-10T05:57:49;3.58;;;1.48;;
20056;SDS011;10189;49.546;7.906;2022-07-10T06:00:19;3.90;;;1.40;;
20056;SDS011;10189;49.546;7.906;2022-07-10T06:02:45;4.85;;;1.67;;
20056;SDS011;10189;49.546;7.906;2022-07-10T06:05:11;3.42;;;1.50;;
20056;SDS011;10189;49.546;7.906;2022-07-10T06:07:37;2.65;;;1.50;;
20056;SDS011;10189;49.546;7.906;2022-07-10T06:10:03;3.25;;;1.55;;
20056;SDS011;10189;49.546;7.906;2022-07-10T06:12:31;3.70;;;1.60;;
20056;SDS011;10189;49.546;7.906;2022-07-10T06:14:57;2.83;;;1.30;;
20056;SDS011;10189;49.546;7.906;2022-07-10T06:17:23;4.75;;;1.90;;
20056;SDS011;10189;49.546;7.906;2022-07-10T06:19:49;5.10;;;1.75;;
20056;SDS011;10189;49.546;7.906;2022-07-10T06:22:15;3.13;;;1.15;;
20056;SDS011;10189;49.546;7.906;2022-07-10T06:24:56;6.10;;;2.15;;
20056;SDS011;10189;49.546;7.906;2022-07-10T06:27:30;4.43;;;1.50;;
20056;SDS011;10189;49.546;7.906;2022-07-10T06:29:57;3.78;;;1.52;;
20056;SDS011;10189;49.546;7.906;2022-07-10T06:32:24;3.95;;;1.20;;
20056;SDS011;10189;49.546;7.906;2022-07-10T06:34:52;3.45;;;1.50;;
20056;SDS011;10189;49.546;7.906;2022-07-10T06:37:19;6.15;;;4.43;;
20056;SDS011;10189;49.546;7.906;2022-07-10T06:39:46;4.90;;;1.50;;
20056;SDS011;10189;49.546;7.906;2022-07-10T06:42:13;2.28;;;1.10;;
20056;SDS011;10189;49.546;7.906;2022-07-10T06:44:43;2.28;;;1.10;;
20056;SDS011;10189;49.546;7.906;2022-07-10T06:47:10;2.25;;;1.02;;
20056;SDS011;10189;49.546;7.906;2022-07-10T06:49:57;3.92;;;1.20;;
20056;SDS011;10189;49.546;7.906;2022-07-10T06:52:24;4.25;;;1.33;;
20056;SDS011;10189;49.546;7.906;2022-07-10T06:54:51;6.47;;;1.10;;
20056;SDS011;10189;49.546;7.906;2022-07-10T06:57:18;4.40;;;1.52;;
20056;SDS011;10189;49.546;7.906;2022-07-10T06:59:44;1.83;;;0.90;;
20056;SDS011;10189;49.546;7.906;2022-07-10T07:02:11;2.65;;;1.02;;
20056;SDS011;10189;49.546;7.906;2022-07-10T07:04:37;2.08;;;1.08;;
20056;SDS011;10189;49.546;7.906;2022-07-10T07:07:03;3.70;;;1.05;;
20056;SDS011;10189;49.546;7.906;2022-07-10T07:09:29;2.63;;;1.13;;
20056;SDS011;10189;49.546;7.906;2022-07-10T07:11:55;2.10;;;0.90;;
20056;SDS011;10189;49.546;7.906;2022-07-10T07:14:21;5.50;;;1.10;;
20056;SDS011;10189;49.546;7.906;2022-07-10T07:16:47;2.67;;;1.15;;
20056;SDS011;10189;49.546;7.906;2022-07-10T07:19:23;2.28;;;1.10;;
20056;SDS011;10189;49.546;7.906;2022-07-10T07:21:59;4.95;;;1.08;;
20056;SDS011;10189;49.546;7.906;2022-07-10T07:24:44;4.38;;;1.25;;
20056;SDS011;10189;49.546;7.906;2022-07-10T07:27:11;3.83;;;1.20;;
20056;SDS011;10189;49.546;7.906;2022-07-10T07:29:37;5.97;;;1.25;;
20056;SDS011;10189;49.546;7.906;2022-07-10T07:32:03;4.00;;;1.25;;
20056;SDS011;10189;49.546;7.906;2022-07-10T07:34:30;5.28;;;1.33;;
20056;SDS011;10189;49.546;7.906;2022-07-10T07:36:56;3.08;;;1.30;;
20056;SDS011;10189;49.546;7.906;2022-07-10T07:39:23;2.97;;;1.30;;
20056;SDS011;10189;49.546;7.906;2022-07-10T07:41:49;2.30;;;1.10;;
20056;SDS011;10189;49.546;7.906;2022-07-10T07:44:15;2.20;;;1.10;;
20056;SDS011;10189;49.546;7.906;2022-07-10T07:46:43;3.53;;;1.27;;
20056;SDS011;10189;49.546;7.906;2022-07-10T07:49:09;4.13;;;1.10;;
20056;SDS011;10189;49.546;7.906;2022-07-10T07:51:35;3.25;;;1.17;;
20056;SDS011;10189;49.546;7.906;2022-07-10T07:54:01;3.53;;;1.10;;
20056;SDS011;10189;49.546;7.906;2022-07-10T07:56:27;3.58;;;1.35;;
20056;SDS011;10189;49.546;7.906;2022-07-10T07:58:53;3.85;;;1.60;;
20056;SDS011;10189;49.546;7.906;2022-07-10T08:01:19;3.80;;;1.55;;
20056;SDS011;10189;49.546;7.906;2022-07-10T08:03:45;2.58;;;1.00;;
20056;SDS011;10189;49.546;7.906;2022-07-10T08:06:11;2.85;;;1.27;;
20056;SDS011;10189;49.546;7.906;2022-07-10T08:08:37;2.85;;;1.80;;
20056;SDS011;10189;49.546;7.906;2022-07-10T08:11:03;2.72;;;1.05;;
20056;SDS011;10189;49.546;7.906;2022-07-10T08:13:29;3.95;;;1.98;;
20056;SDS011;10189;49.546;7.906;2022-07-10T08:15:55;2.58;;;1.30;;
20056;SDS011;10189;49.546;7.906;2022-07-10T08:18:21;4.55;;;1.25;;
20056;SDS011;10189;49.546;7.906;2022-07-10T08:20:47;2.67;;;1.17;;
20056;SDS011;10189;49.546;7.906;2022-07-10T08:23:12;3.65;;;1.00;;
20056;SDS011;10189;49.546;7.906;2022-07-10T08:25:38;2.60;;;1.10;;
20056;SDS011;10189;49.546;7.906;2022-07-10T08:28:04;1.85;;;1.00;;
20056;SDS011;10189;49.546;7.906;2022-07-10T08:30:36;3.10;;;1.00;;
20056;SDS011;10189;49.546;7.906;2022-07-10T08:33:03;5.85;;;1.40;;
20056;SDS011;10189;49.546;7.906;2022-07-10T08:35:29;2.42;;;0.90;;
20056;SDS011;10189;49.546;7.906;2022-07-10T08:37:55;3.92;;;0.95;;
20056;SDS011;10189;49.546;7.906;2022-07-10T08:40:22;2.83;;;1.10;;
20056;SDS011;10189;49.546;7.906;2022-07-10T08:42:48;3.53;;;1.00;;
20056;SDS011;10189;49.546;7.906;2022-07-10T08:45:14;3.35;;;1.00;;
20056;SDS011;10189;49.546;7.906;2022-07-10T08:47:40;2.22;;;1.13;;
20056;SDS011;10189;49.546;7.906;2022-07-10T08:50:21;4.53;;;1.13;;
20056;SDS011;10189;49.546;7.906;2022-07-10T08:53:08;4.13;;;0.90;;
20056;SDS011;10189;49.546;7.906;2022-07-10T08:55:49;4.57;;;1.15;;
20056;SDS011;10189;49.546;7.906;2022-07-10T08:58:15;3.45;;;1.17;;
20056;SDS011;10189;49.546;7.906;2022-07-10T09:00:45;4.28;;;1.08;;
20056;SDS011;10189;49.546;7.906;2022-07-10T09:03:10;5.85;;;1.10;;
20056;SDS011;10189;49.546;7.906;2022-07-10T09:05:36;3.25;;;1.13;;
20056;SDS011;10189;49.546;7.906;2022-07-10T09:08:02;4.35;;;1.10;;
20056;SDS011;10189;49.546;7.906;2022-07-10T09:10:28;2.97;;;0.82;;
20056;SDS011;10189;49.546;7.906;2022-07-10T09:12:56;3.30;;;1.10;;
20056;SDS011;10189;49.546;7.906;2022-07-10T09:15:26;3.20;;;1.00;;
20056;SDS011;10189;49.546;7.906;2022-07-10T09:18:01;2.30;;;1.02;;
20056;SDS011;10189;49.546;7.906;2022-07-10T09:20:34;3.55;;;1.50;;
20056;SDS011;10189;49.546;7.906;2022-07-10T09:23:17;4.57;;;1.00;;
20056;SDS011;10189;49.546;7.906;2022-07-10T09:25:46;2.50;;;1.00;;
20056;SDS011;10189;49.546;7.906;2022-07-10T09:28:16;2.10;;;1.00;;
20056;SDS011;10189;49.546;7.906;2022-07-10T09:30:46;3.08;;;1.13;;
20056;SDS011;10189;49.546;7.906;2022-07-10T09:33:17;5.78;;;1.20;;
20056;SDS011;10189;49.546;7.906;2022-07-10T09:36:04;4.18;;;1.17;;
20056;SDS011;10189;49.546;7.906;2022-07-10T09:46:31;1.63;;;1.00;;
20056;SDS011;10189;49.546;7.906;2022-07-10T09:49:01;2.47;;;1.00;;
20056;SDS011;10189;49.546;7.906;2022-07-10T09:51:37;2.60;;;1.08;;
20056;SDS011;10189;49.546;7.906;2022-07-10T09:54:11;2.92;;;1.02;;
20056;SDS011;10189;49.546;7.906;2022-07-10T09:56:42;2.95;;;1.20;;
20056;SDS011;10189;49.546;7.906;2022-07-10T09:59:13;3.15;;;1.30;;
20056;SDS011;10189;49.546;7.906;2022-07-10T10:01:48;2.83;;;1.10;;
20056;SDS011;10189;49.546;7.906;2022-07-10T10:04:17;3.25;;;1.08;;
20056;SDS011;10189;49.546;7.906;2022-07-10T10:06:46;1.52;;;1.02;;
20056;SDS011;10189;49.546;7.906;2022-07-10T10:09:22;4.93;;;1.30;;
20056;SDS011;10189;49.546;7.906;2022-07-10T10:11:56;2.53;;;1.30;;
20056;SDS011;10189;49.546;7.906;2022-07-10T10:14:28;2.80;;;1.23;;
20056;SDS011;10189;49.546;7.906;2022-07-10T10:16:55;3.28;;;1.48;;
20056;SDS011;10189;49.546;7.906;2022-07-10T10:19:25;4.80;;;1.63;;
20056;SDS011;10189;49.546;7.906;2022-07-10T10:22:12;4.15;;;1.25;;
20056;SDS011;10189;49.546;7.906;2022-07-10T10:24:40;5.30;;;1.38;;
20056;SDS011;10189;49.546;7.906;2022-07-10T10:27:07;3.55;;;1.20;;
20056;SDS011;10189;49.546;7.906;2022-07-10T10:29:34;2.63;;;1.50;;
20056;SDS011;10189;49.546;7.906;2022-07-10T10:32:02;4.07;;;1.40;;
20056;SDS011;10189;49.546;7.906;2022-07-10T10:34:45;2.70;;;1.40;;
20056;SDS011;10189;49.546;7.906;2022-07-10T10:39:53;3.03;;;1.42;;
20056;SDS011;10189;49.546;7.906;2022-07-10T10:50:38;2.83;;;1.83;;
20056;SDS011;10189;49.546;7.906;2022-07-10T10:53:22;4.72;;;2.08;;
20056;SDS011;10189;49.546;7.906;2022-07-10T10:58:25;3.42;;;1.58;;
20056;SDS011;10189;49.546;7.906;2022-07-10T11:09:22;2.88;;;1.60;;
20056;SDS011;10189;49.546;7.906;2022-07-10T11:12:02;1.95;;;1.40;;
20056;SDS011;10189;49.546;7.906;2022-07-10T11:14:34;4.88;;;1.83;;
20056;SDS011;10189;49.546;7.906;2022-07-10T11:17:03;3.92;;;1.70;;
20056;SDS011;10189;49.546;7.906;2022-07-10T11:19:31;4.00;;;1.55;;
20056;SDS011;10189;49.546;7.906;2022-07-10T11:31:26;3.53;;;1.90;;
20056;SDS011;10189;49.546;7.906;2022-07-10T11:33:53;3.08;;;1.75;;
20056;SDS011;10189;49.546;7.906;2022-07-10T11:36:22;4.78;;;2.10;;
20056;SDS011;10189;49.546;7.906;2022-07-10T11:38:59;3.92;;;2.00;;
20056;SDS011;10189;49.546;7.906;2022-07-10T11:41:34;2.53;;;1.75;;
20056;SDS011;10189;49.546;7.906;2022-07-10T11:44:14;5.03;;;1.80;;
20056;SDS011;10189;49.546;7.906;2022-07-10T11:46:43;4.88;;;1.85;;
20056;SDS011;10189;49.546;7.906;2022-07-10T11:49:11;3.42;;;1.70;;
20056;SDS011;10189;49.546;7.906;2022-07-10T11:51:40;3.28;;;2.20;;
20056;SDS011;10189;49.546;7.906;2022-07-10T11:54:09;5.30;;;1.85;;
20056;SDS011;10189;49.546;7.906;2022-07-10T11:56:38;4.53;;;1.70;;
20056;SDS011;10189;49.546;7.906;2022-07-10T11:59:09;4.03;;;1.83;;
20056;SDS011;10189;49.546;7.906;2022-07-10T12:01:41;3.47;;;1.90;;
20056;SDS011;10189;49.546;7.906;2022-07-10T12:04:14;6.40;;;1.65;;
20056;SDS011;10189;49.546;7.906;2022-07-10T12:06:43;3.08;;;1.90;;
20056;SDS011;10189;49.546;7.906;2022-07-10T12:09:15;2.78;;;1.80;;
20056;SDS011;10189;49.546;7.906;2022-07-10T12:11:44;4.78;;;1.65;;
20056;SDS011;10189;49.546;7.906;2022-07-10T12:14:28;3.67;;;2.05;;
20056;SDS011;10189;49.546;7.906;2022-07-10T12:16:55;3.80;;;1.90;;
20056;SDS011;10189;49.546;7.906;2022-07-10T12:22:01;3.97;;;1.70;;
20056;SDS011;10189;49.546;7.906;2022-07-10T12:24:30;5.07;;;1.85;;
20056;SDS011;10189;49.546;7.906;2022-07-10T12:26:57;3.00;;;1.65;;
20056;SDS011;10189;49.546;7.906;2022-07-10T12:29:27;3.92;;;1.40;;
20056;SDS011;10189;49.546;7.906;2022-07-10T12:31:56;2.80;;;1.70;;
20056;SDS011;10189;49.546;7.906;2022-07-10T12:39:36;3.72;;;1.75;;
20056;SDS011;10189;49.546;7.906;2022-07-10T12:42:10;2.83;;;1.80;;
20056;SDS011;10189;49.546;7.906;2022-07-10T12:44:43;3.78;;;1.88;;
20056;SDS011;10189;49.546;7.906;2022-07-10T12:47:14;5.88;;;2.10;;
20056;SDS011;10189;49.546;7.906;2022-07-10T12:49:56;4.47;;;1.90;;
20056;SDS011;10189;49.546;7.906;2022-07-10T12:52:30;2.63;;;1.70;;
20056;SDS011;10189;49.546;7.906;2022-07-10T12:57:52;2.53;;;1.65;;
20056;SDS011;10189;49.546;7.906;2022-07-10T13:00:22;4.45;;;2.17;;
20056;SDS011;10189;49.546;7.906;2022-07-10T13:02:58;4.43;;;1.92;;
20056;SDS011;10189;49.546;7.906;2022-07-10T13:08:17;3.42;;;1.80;;
20056;SDS011;10189;49.546;7.906;2022-07-10T13:10:49;2.40;;;1.73;;
20056;SDS011;10189;49.546;7.906;2022-07-10T13:13:18;3.40;;;1.83;;
20056;SDS011;10189;49.546;7.906;2022-07-10T13:15:45;2.85;;;1.52;;
20056;SDS011;10189;49.546;7.906;2022-07-10T13:18:15;5.10;;;1.90;;
20056;SDS011;10189;49.546;7.906;2022-07-10T13:20:44;3.47;;;1.63;;
20056;SDS011;10189;49.546;7.906;2022-07-10T13:23:10;4.13;;;1.50;;
20056;SDS011;10189;49.546;7.906;2022-07-10T13:25:37;3.83;;;1.33;;
20056;SDS011;10189;49.546;7.906;2022-07-10T13:28:06;2.80;;;1.50;;
20056;SDS011;10189;49.546;7.906;2022-07-10T13:30:36;4.60;;;1.65;;
20056;SDS011;10189;49.546;7.906;2022-07-10T13:33:02;2.97;;;1.50;;
20056;SDS011;10189;49.546;7.906;2022-07-10T13:35:28;2.55;;;1.10;;
20056;SDS011;10189;49.546;7.906;2022-07-10T13:37:56;3.80;;;1.15;;
20056;SDS011;10189;49.546;7.906;2022-07-10T13:40:28;2.28;;;1.27;;
20056;SDS011;10189;49.546;7.906;2022-07-10T13:42:56;1.95;;;1.20;;
20056;SDS011;10189;49.546;7.906;2022-07-10T13:45:23;2.03;;;1.30;;
20056;SDS011;10189;49.546;7.906;2022-07-10T13:47:52;2.30;;;1.23;;
20056;SDS011;10189;49.546;7.906;2022-07-10T13:50:19;3.33;;;1.20;;
20056;SDS011;10189;49.546;7.906;2022-07-10T13:52:46;1.90;;;1.50;;
20056;SDS011;10189;49.546;7.906;2022-07-10T13:55:12;2.97;;;1.33;;
20056;SDS011;10189;49.546;7.906;2022-07-10T13:57:38;4.05;;;1.38;;
20056;SDS011;10189;49.546;7.906;2022-07-10T14:00:05;2.38;;;1.30;;
20056;SDS011;10189;49.546;7.906;2022-07-10T14:02:37;2.67;;;1.30;;
20056;SDS011;10189;49.546;7.906;2022-07-10T14:05:03;4.07;;;1.48;;
20056;SDS011;10189;49.546;7.906;2022-07-10T14:07:30;3.92;;;1.45;;
20056;SDS011;10189;49.546;7.906;2022-07-10T14:09:56;1.65;;;1.25;;
20056;SDS011;10189;49.546;7.906;2022-07-10T14:12:23;1.63;;;1.10;;
20056;SDS011;10189;49.546;7.906;2022-07-10T14:14:49;3.25;;;1.05;;
20056;SDS011;10189;49.546;7.906;2022-07-10T14:17:15;1.20;;;1.00;;
20056;SDS011;10189;49.546;7.906;2022-07-10T14:19:41;2.13;;;1.10;;
20056;SDS011;10189;49.546;7.906;2022-07-10T14:22:07;2.20;;;1.20;;
20056;SDS011;10189;49.546;7.906;2022-07-10T14:24:34;2.38;;;1.20;;
20056;SDS011;10189;49.546;7.906;2022-07-10T14:27:00;2.05;;;1.15;;
20056;SDS011;10189;49.546;7.906;2022-07-10T14:29:26;5.43;;;1.02;;
20056;SDS011;10189;49.546;7.906;2022-07-10T14:31:52;1.60;;;0.90;;
20056;SDS011;10189;49.546;7.906;2022-07-10T14:34:18;1.15;;;0.80;;
20056;SDS011;10189;49.546;7.906;2022-07-10T14:36:44;1.83;;;0.93;;
20056;SDS011;10189;49.546;7.906;2022-07-10T14:39:10;5.05;;;2.88;;
20056;SDS011;10189;49.546;7.906;2022-07-10T14:41:37;1.00;;;0.90;;
20056;SDS011;10189;49.546;7.906;2022-07-10T14:44:04;0.88;;;0.70;;
20056;SDS011;10189;49.546;7.906;2022-07-10T14:46:31;1.55;;;0.90;;
20056;SDS011;10189;49.546;7.906;2022-07-10T14:48:58;1.65;;;0.90;;
20056;SDS011;10189;49.546;7.906;2022-07-10T14:51:25;2.38;;;0.57;;
20056;SDS011;10189;49.546;7.906;2022-07-10T14:53:51;2.22;;;1.20;;
20056;SDS011;10189;49.546;7.906;2022-07-10T14:56:17;3.22;;;1.48;;
20056;SDS011;10189;49.546;7.906;2022-07-10T14:58:44;1.63;;;0.95;;
20056;SDS011;10189;49.546;7.906;2022-07-10T15:01:11;2.20;;;0.85;;
20056;SDS011;10189;49.546;7.906;2022-07-10T15:03:38;2.10;;;0.90;;
20056;SDS011;10189;49.546;7.906;2022-07-10T15:06:04;1.33;;;0.77;;
20056;SDS011;10189;49.546;7.906;2022-07-10T15:08:30;0.90;;;0.77;;
20056;SDS011;10189;49.546;7.906;2022-07-10T15:10:56;2.72;;;0.93;;
20056;SDS011;10189;49.546;7.906;2022-07-10T15:13:25;2.25;;;1.10;;
20056;SDS011;10189;49.546;7.906;2022-07-10T15:15:51;1.10;;;0.70;;
20056;SDS011;10189;49.546;7.906;2022-07-10T15:18:19;1.98;;;1.00;;
20056;SDS011;10189;49.546;7.906;2022-07-10T15:20:45;1.38;;;1.10;;
20056;SDS011;10189;49.546;7.906;2022-07-10T15:23:12;1.27;;;0.80;;
20056;SDS011;10189;49.546;7.906;2022-07-10T15:25:39;3.40;;;0.82;;
20056;SDS011;10189;49.546;7.906;2022-07-10T15:28:06;1.33;;;0.90;;
20056;SDS011;10189;49.546;7.906;2022-07-10T15:30:36;1.35;;;0.93;;
20056;SDS011;10189;49.546;7.906;2022-07-10T15:33:03;1.08;;;0.80;;
20056;SDS011;10189;49.546;7.906;2022-07-10T15:35:30;1.48;;;0.85;;
20056;SDS011;10189;49.546;7.906;2022-07-10T15:37:57;1.23;;;0.90;;
20056;SDS011;10189;49.546;7.906;2022-07-10T15:40:30;1.33;;;0.80;;
20056;SDS011;10189;49.546;7.906;2022-07-10T15:42:57;1.85;;;0.82;;
20056;SDS011;10189;49.546;7.906;2022-07-10T15:45:23;3.22;;;1.13;;